Time;durP1;ratioP1;P1;durP2;ratioP2;P2;SDS_P1;SDS_P2;PMS_P1;PMS_P2;Temp;Humidity;BMP_temperature;BMP_pressure;BME280_temperature;BME280_humidity;BME280_pressure;Samples;Min_cycle;Max_cycle;Signal;HPM_P1;HPM_P2
2023/04/26 00:00:18;;;;;;;5.70;3.00;;;;;;;;;;474558;29;1241;-71
2023/04/26 00:01:07;;;;;;;5.45;2.95;;;;;;;;;;466499;29;1175;-72
2023/04/26 00:01:33;;;;;;;6.28;3.03;;;;;;;;;;464087;29;1409;-71
2023/04/26 00:02:08;;;;;;;6.70;3.10;;;;;;;;;;468428;29;1180;-70
2023/04/26 00:02:54;;;;;;;5.68;2.80;;;;;;;;;;465494;29;1145;-71
2023/04/26 00:03:13;;;;;;;5.47;3.00;;;;;;;;;;464653;29;1441;-70
2023/04/26 00:03:54;;;;;;;6.27;3.10;;;;;;;;;;465903;29;1281;-70
2023/04/26 00:04:21;;;;;;;;;;;;;;;;;;;;;
2023/04/26 00:04:57;;;;;;;6.25;3.13;;;;;;;;;;459072;29;1203;-71
2023/04/26 00:05:55;;;;;;;5.95;3.00;;;;;;;;;;464645;29;1411;-71
2023/04/26 00:06:35;;;;;;;;;;;;;;;;;;;;;
2023/04/26 00:08:27;;;;;;;;;;;;;;;;;;;;;
2023/04/26 00:08:50;;;;;;;5.22;2.85;;;;;;;;;;466452;29;1179;-72
2023/04/26 00:09:29;;;;;;;5.35;2.97;;;;;;;;;;467394;29;1345;-72
2023/04/26 00:10:04;;;;;;;6.43;3.28;;;;;;;;;;465909;29;1868;-71
2023/04/26 00:11:23;;;;;;;6.88;3.10;;;;;;;;;;464550;29;1336;-71
2023/04/26 00:11:38;;;;;;;;;;;;;;;;;;;;;
2023/04/26 00:12:17;;;;;;;;;;;;;;;;;;;;;
2023/04/26 00:13:18;;;;;;;7.88;3.25;;;;;;;;;;467900;29;1541;-71
2023/04/26 00:13:45;;;;;;;;;;;;;;;;;;;;;
2023/04/26 00:14:18;;;;;;;;;;;;;;;;;;;;;
2023/04/26 00:15:06;;;;;;;7.60;3.35;;;;;;;;;;465670;29;1136;-71
2023/04/26 00:15:34;;;;;;;7.75;3.63;;;;;;;;;;464173;29;1398;-71
2023/04/26 00:16:04;;;;;;;6.63;3.35;;;;;;;;;;467299;29;1390;-71
2023/04/26 00:17:28;;;;;;;7.90;3.70;;;;;;;;;;474143;29;1375;-71
2023/04/26 00:17:52;;;;;;;8.27;3.80;;;;;;;;;;468873;29;2089;-71
2023/04/26 00:18:08;;;;;;;6.00;3.47;;;;;;;;;;475861;29;2811;-71
2023/04/26 00:18:24;;;;;;;5.95;3.47;;;;;;;;;;468089;29;1268;-71
2023/04/26 00:19:01;;;;;;;;;;;;;;;;;;;;;
2023/04/26 00:19:17;;;;;;;5.95;3.40;;;;;;;;;;468107;29;1136;-71
2023/04/26 00:19:33;;;;;;;5.85;3.30;;;;;;;;;;478397;29;1322;-71
2023/04/26 00:19:49;;;;;;;5.45;3.25;;;;;;;;;;471851;29;1092;-72
2023/04/26 00:20:30;;;;;;;5.45;3.30;;;;;;;;;;471074;29;1397;-72
2023/04/26 00:21:15;;;;;;;6.93;3.50;;;;;;;;;;469164;29;1551;-72
2023/04/26 00:22:04;;;;;;;;;;;;;;;;;;;;;
2023/04/26 00:22:36;;;;;;;7.32;3.65;;;;;;;;;;468576;29;1299;-70
2023/04/26 00:22:52;;;;;;;8.25;3.60;;;;;;;;;;471713;29;1276;-70
2023/04/26 00:23:28;;;;;;;9.48;3.58;;;;;;;;;;470848;29;1348;-72
2023/04/26 00:23:53;;;;;;;8.43;3.80;;;;;;;;;;471809;29;1293;-71
2023/04/26 00:24:12;;;;;;;7.28;3.55;;;;;;;;;;474764;28;1488;-71
2023/04/26 00:25:19;;;;;;;8.68;3.90;;;;;;;;;;476224;28;1183;-70
2023/04/26 00:25:19;;;;;;;7.72;3.70;;;;;;;;;;474451;28;2083;-70
2023/04/26 00:25:38;;;;;;;7.13;3.65;;;;;;;;;;478594;28;1189;-70
2023/04/26 00:26:25;;;;;;;6.80;3.65;;;;;;;;;;474815;29;1215;-70
2023/04/26 00:27:20;;;;;;;6.93;3.70;;;;;;;;;;469690;29;1239;-71
2023/04/26 00:27:57;;;;;;;;;;;;;;;;;;;;;
2023/04/26 00:28:16;;;;;;;6.18;3.20;;;;;;;;;;476047;28;1116;-71
2023/04/26 00:28:35;;;;;;;6.20;3.40;;;;;;;;;;478643;28;1204;-71
2023/04/26 00:28:54;;;;;;;7.07;3.40;;;;;;;;;;476294;28;1107;-71
2023/04/26 00:29:33;;;;;;;8.00;3.30;;;;;;;;;;474538;28;1180;-70
2023/04/26 00:29:59;;;;;;;8.85;3.45;;;;;;;;;;476550;29;1859;-70
2023/04/26 00:31:15;;;;;;;5.47;3.05;;;;;;;;;;474709;29;1293;-72
2023/04/26 00:31:25;;;;;;;6.75;3.30;;;;;;;;;;469855;29;1459;-71
2023/04/26 00:31:47;;;;;;;8.38;3.40;;;;;;;;;;474867;29;1230;-71
2023/04/26 00:32:13;;;;;;;7.35;3.25;;;;;;;;;;470689;29;1293;-70
2023/04/26 00:32:38;;;;;;;7.47;3.40;;;;;;;;;;486261;29;1205;-71
2023/04/26 00:33:04;;;;;;;6.65;3.03;;;;;;;;;;468483;29;1207;-71
2023/04/26 00:36:19;;;;;;;7.70;3.20;;;;;;;;;;490678;28;1212;-72
2023/04/26 00:39:56;;;;;;;5.38;2.75;;;;;;;;;;477065;29;1162;-71
2023/04/26 00:40:22;;;;;;;;;;;;;;;;;;;;;
2023/04/26 00:40:48;;;;;;;6.50;2.83;;;;;;;;;;472312;29;1101;-71
2023/04/26 00:41:10;;;;;;;7.50;2.88;;;;;;;;;;471525;29;1269;-72
2023/04/26 00:41:29;;;;;;;8.82;3.08;;;;;;;;;;470400;29;1245;-72
2023/04/26 00:42:08;;;;;;;7.22;2.97;;;;;;;;;;473213;29;1653;-72
2023/04/26 00:42:28;;;;;;;8.20;3.13;;;;;;;;;;469645;29;1296;-71
2023/04/26 00:42:55;;;;;;;6.38;3.00;;;;;;;;;;472771;29;1847;-71
2023/04/26 00:43:25;;;;;;;7.28;3.17;;;;;;;;;;475183;29;1158;-71
2023/04/26 00:43:47;;;;;;;6.07;3.05;;;;;;;;;;469835;29;1207;-71
2023/04/26 00:44:08;;;;;;;6.32;3.10;;;;;;;;;;468574;29;1248;-71
2023/04/26 00:44:35;;;;;;;5.88;2.90;;;;;;;;;;477081;29;1274;-71
2023/04/26 00:45:11;;;;;;;5.78;2.85;;;;;;;;;;476452;29;1213;-72
2023/04/26 00:45:30;;;;;;;7.65;2.83;;;;;;;;;;468424;29;1373;-71
2023/04/26 00:46:27;;;;;;;5.72;2.70;;;;;;;;;;464216;29;1305;-70
2023/04/26 00:46:55;;;;;;;5.97;3.03;;;;;;;;;;461626;29;1229;-71
2023/04/26 00:48:04;;;;;;;7.85;2.92;;;;;;;;;;463753;29;1232;-72
2023/04/26 00:48:33;;;;;;;7.80;3.20;;;;;;;;;;472979;29;1344;-70
2023/04/26 00:49:58;;;;;;;5.22;2.70;;;;;;;;;;464847;29;1065;-70
2023/04/26 00:51:11;;;;;;;6.95;3.33;;;;;;;;;;465517;29;1399;-69
2023/04/26 00:51:30;;;;;;;6.00;3.03;;;;;;;;;;465332;29;1284;-71
2023/04/26 00:51:50;;;;;;;7.55;3.05;;;;;;;;;;467251;29;1191;-71
2023/04/26 00:52:10;;;;;;;7.72;2.97;;;;;;;;;;468489;29;1308;-71
2023/04/26 00:52:34;;;;;;;7.18;3.03;;;;;;;;;;469775;29;1168;-70
2023/04/26 00:53:18;;;;;;;6.63;3.05;;;;;;;;;;465394;29;1334;-71
2023/04/26 00:53:58;;;;;;;7.43;2.97;;;;;;;;;;460068;29;1385;-72
2023/04/26 00:54:15;;;;;;;5.97;3.22;;;;;;;;;;463379;29;1166;-70
2023/04/26 00:54:46;;;;;;;5.65;3.00;;;;;;;;;;467566;29;1351;-72
2023/04/26 00:55:19;;;;;;;7.20;3.13;;;;;;;;;;464699;29;1274;-71
2023/04/26 00:56:04;;;;;;;6.63;3.13;;;;;;;;;;470338;29;1443;-71
2023/04/26 00:56:52;;;;;;;7.47;3.20;;;;;;;;;;473720;29;948;-72
2023/04/26 00:57:21;;;;;;;7.60;3.13;;;;;;;;;;459742;29;1200;-72
2023/04/26 00:57:51;;;;;;;;;;;;;;;;;;;;;
2023/04/26 00:58:49;;;;;;;7.95;3.30;;;;;;;;;;470913;29;1215;-71
2023/04/26 01:00:22;;;;;;;6.70;3.20;;;;;;;;;;467736;29;1335;-71
2023/04/26 01:00:57;;;;;;;6.90;3.40;;;;;;;;;;465433;29;1495;-71
2023/04/26 01:01:15;;;;;;;7.68;3.45;;;;;;;;;;469323;29;1174;-70
2023/04/26 01:02:00;;;;;;;5.75;3.20;;;;;;;;;;472624;29;1359;-71
2023/04/26 01:02:44;;;;;;;6.68;3.35;;;;;;;;;;464110;29;1442;-70
2023/04/26 01:03:26;;;;;;;5.32;3.00;;;;;;;;;;470848;29;1546;-71
2023/04/26 01:03:45;;;;;;;6.18;3.17;;;;;;;;;;468367;29;1475;-71
2023/04/26 01:04:44;;;;;;;6.28;3.00;;;;;;;;;;463704;29;1265;-72
2023/04/26 01:05:14;;;;;;;5.60;3.20;;;;;;;;;;463809;29;1117;-73
2023/04/26 01:05:33;;;;;;;6.03;3.30;;;;;;;;;;472331;29;1471;-71
2023/04/26 01:05:52;;;;;;;6.05;3.10;;;;;;;;;;468262;29;1273;-71
2023/04/26 01:06:11;;;;;;;5.00;3.05;;;;;;;;;;470677;29;1153;-71
2023/04/26 01:07:36;;;;;;;5.53;2.80;;;;;;;;;;467816;29;1181;-71
2023/04/26 01:07:55;;;;;;;5.95;3.17;;;;;;;;;;463366;29;1215;-71
2023/04/26 01:08:11;;;;;;;5.28;3.00;;;;;;;;;;462160;29;1279;-72
2023/04/26 01:08:43;;;;;;;;;;;;;;;;;;;;;
2023/04/26 01:10:15;;;;;;;7.30;3.10;;;;;;;;;;465638;29;1880;-72
2023/04/26 01:10:41;;;;;;;6.68;3.25;;;;;;;;;;469710;29;1252;-71
2023/04/26 01:11:21;;;;;;;7.70;3.20;;;;;;;;;;468743;29;1284;-71
2023/04/26 01:11:42;;;;;;;7.57;3.20;;;;;;;;;;466416;29;1261;-72
2023/04/26 01:11:59;;;;;;;7.95;3.33;;;;;;;;;;470495;29;1462;-71
2023/04/26 01:13:40;;;;;;;8.25;3.47;;;;;;;;;;464396;29;1584;-72
2023/04/26 01:14:03;;;;;;;6.72;3.28;;;;;;;;;;464796;29;1324;-72
2023/04/26 01:14:54;;;;;;;7.10;3.00;;;;;;;;;;468540;29;1600;-71
2023/04/26 01:15:32;;;;;;;;;;;;;;;;;;;;;
2023/04/26 01:17:10;;;;;;;6.03;3.17;;;;;;;;;;468551;29;2059;-71
2023/04/26 01:17:51;;;;;;;6.30;3.42;;;;;;;;;;475529;29;1336;-69
2023/04/26 01:18:46;;;;;;;;;;;;;;;;;;;;;
2023/04/26 01:23:10;;;;;;;7.32;3.33;;;;;;;;;;473974;29;1223;-71
2023/04/26 01:25:32;;;;;;;7.80;3.40;;;;;;;;;;463616;30;1201;-71
2023/04/26 01:25:59;;;;;;;6.60;3.30;;;;;;;;;;463212;29;1176;-71
2023/04/26 01:26:16;;;;;;;7.85;3.70;;;;;;;;;;461735;29;1342;-72
2023/04/26 01:26:45;;;;;;;;;;;;;;;;;;;;;
2023/04/26 01:27:16;;;;;;;7.22;3.50;;;;;;;;;;462160;29;1131;-71
2023/04/26 01:28:43;;;;;;;;;;;;;;;;;;;;;
2023/04/26 01:29:31;;;;;;;;;;;;;;;;;;;;;
2023/04/26 01:30:08;;;;;;;8.05;3.65;;;;;;;;;;461131;29;1300;-71
2023/04/26 01:33:39;;;;;;;7.97;3.50;;;;;;;;;;462900;29;1398;-71
2023/04/26 01:34:25;;;;;;;7.00;3.28;;;;;;;;;;458827;29;1137;-70
2023/04/26 01:35:31;;;;;;;6.93;3.38;;;;;;;;;;455422;30;1243;-71
2023/04/26 01:36:09;;;;;;;;;;;;;;;;;;;;;
2023/04/26 01:39:43;;;;;;;4.60;2.90;;;;;;;;;;455465;30;1962;-71
2023/04/26 01:40:17;;;;;;;6.25;3.13;;;;;;;;;;458002;30;1445;-71
2023/04/26 01:40:42;;;;;;;6.13;3.22;;;;;;;;;;453646;30;1283;-70
2023/04/26 01:42:04;;;;;;;;;;;;;;;;;;;;;
2023/04/26 01:42:31;;;;;;;7.38;3.42;;;;;;;;;;452119;30;1254;-71
2023/04/26 01:44:26;;;;;;;6.88;3.40;;;;;;;;;;452564;30;1324;-71
2023/04/26 01:44:58;;;;;;;6.80;3.40;;;;;;;;;;463785;30;1438;-70
2023/04/26 01:45:29;;;;;;;8.48;3.50;;;;;;;;;;452372;30;1095;-72
2023/04/26 01:45:46;;;;;;;6.97;3.42;;;;;;;;;;453259;30;1272;-71
2023/04/26 01:46:03;;;;;;;6.97;3.30;;;;;;;;;;454876;30;1374;-71
2023/04/26 01:46:30;;;;;;;6.60;3.15;;;;;;;;;;459196;30;1992;-70
2023/04/26 01:51:00;;;;;;;;;;;;;;;;;;;;;
2023/04/26 01:55:42;;;;;;;6.68;3.40;;;;;;;;;;455252;29;1358;-71
2023/04/26 01:56:09;;;;;;;8.10;3.55;;;;;;;;;;454319;29;1286;-72
2023/04/26 01:56:28;;;;;;;5.15;2.90;;;;;;;;;;453488;30;1255;-72
2023/04/26 01:57:24;;;;;;;;;;;;;;;;;;;;;
2023/04/26 01:58:10;;;;;;;;;;;;;;;;;;;;;
2023/04/26 01:58:37;;;;;;;;;;;;;;;;;;;;;
2023/04/26 01:59:50;;;;;;;7.00;3.50;;;;;;;;;;456884;29;1945;-71
2023/04/26 02:00:01;;;;;;;;;;;;;;;;;;;;;
2023/04/26 02:00:31;;;;;;;8.32;3.70;;;;;;;;;;452659;30;1523;-71
2023/04/26 02:01:30;;;;;;;7.05;3.30;;;;;;;;;;454221;30;1258;-72
2023/04/26 02:02:27;;;;;;;6.75;3.47;;;;;;;;;;451406;30;1716;-72
2023/04/26 02:03:09;;;;;;;7.03;3.53;;;;;;;;;;456734;29;1393;-72
2023/04/26 02:05:29;;;;;;;;;;;;;;;;;;;;;
2023/04/26 02:06:10;;;;;;;7.45;3.42;;;;;;;;;;453345;30;1279;-71
2023/04/26 02:06:41;;;;;;;8.52;3.58;;;;;;;;;;457870;30;1424;-72
2023/04/26 02:08:03;;;;;;;6.53;3.33;;;;;;;;;;459928;29;1244;-72
2023/04/26 02:08:19;;;;;;;6.40;3.33;;;;;;;;;;477037;29;1591;-73
2023/04/26 02:08:52;;;;;;;6.90;3.28;;;;;;;;;;463936;29;1243;-72
2023/04/26 02:09:48;;;;;;;;;;;;;;;;;;;;;
2023/04/26 02:10:34;;;;;;;6.15;3.45;;;;;;;;;;461490;29;1183;-72
2023/04/26 02:11:35;;;;;;;6.95;3.50;;;;;;;;;;462651;29;1640;-72
2023/04/26 02:12:08;;;;;;;6.47;3.42;;;;;;;;;;466113;29;1310;-71
2023/04/26 02:12:35;;;;;;;;;;;;;;;;;;;;;
2023/04/26 02:12:51;;;;;;;7.45;3.70;;;;;;;;;;464412;29;965;-72
2023/04/26 02:13:11;;;;;;;7.97;3.70;;;;;;;;;;461065;29;1377;-71
2023/04/26 02:13:27;;;;;;;7.63;3.53;;;;;;;;;;458813;29;1098;-71
2023/04/26 02:13:53;;;;;;;6.47;3.40;;;;;;;;;;460052;29;1344;-70
2023/04/26 02:14:30;;;;;;;6.85;3.33;;;;;;;;;;460283;29;1232;-72
2023/04/26 02:14:57;;;;;;;6.40;3.30;;;;;;;;;;461686;29;1238;-71
2023/04/26 02:15:17;;;;;;;7.55;3.70;;;;;;;;;;460493;29;1306;-72
2023/04/26 02:15:34;;;;;;;7.53;3.70;;;;;;;;;;461790;29;1190;-71
2023/04/26 02:16:00;;;;;;;7.38;3.55;;;;;;;;;;469592;29;1350;-70
2023/04/26 02:16:32;;;;;;;;;;;;;;;;;;;;;
2023/04/26 02:16:58;;;;;;;8.00;3.67;;;;;;;;;;460738;29;990;-71
2023/04/26 02:17:15;;;;;;;8.30;3.50;;;;;;;;;;460811;29;1268;-72
2023/04/26 02:18:02;;;;;;;;;;;;;;;;;;;;;
2023/04/26 02:18:38;;;;;;;6.75;3.40;;;;;;;;;;457794;29;1232;-71
2023/04/26 02:19:29;;;;;;;;;;;;;;;;;;;;;
2023/04/26 02:19:46;;;;;;;8.50;3.90;;;;;;;;;;460456;29;1097;-71
2023/04/26 02:20:11;;;;;;;7.15;3.80;;;;;;;;;;477103;29;1124;-71
2023/04/26 02:20:37;;;;;;;7.50;3.60;;;;;;;;;;465383;29;1106;-71
2023/04/26 02:20:56;;;;;;;7.93;3.72;;;;;;;;;;461946;29;1303;-70
2023/04/26 02:21:22;;;;;;;6.70;3.80;;;;;;;;;;462852;29;1189;-70
2023/04/26 02:21:56;;;;;;;6.45;3.58;;;;;;;;;;461139;29;1506;-71
2023/04/26 02:22:45;;;;;;;6.55;3.67;;;;;;;;;;460730;29;1054;-72
2023/04/26 02:23:23;;;;;;;8.95;3.80;;;;;;;;;;462917;29;1327;-71
2023/04/26 02:24:43;;;;;;;9.13;3.83;;;;;;;;;;459615;29;1192;-72
2023/04/26 02:24:59;;;;;;;10.10;3.85;;;;;;;;;;461528;29;1345;-71
2023/04/26 02:25:38;;;;;;;9.07;3.75;;;;;;;;;;461375;29;1490;-71
2023/04/26 02:26:01;;;;;;;8.80;3.90;;;;;;;;;;464973;29;1231;-71
2023/04/26 02:26:20;;;;;;;7.90;3.72;;;;;;;;;;465603;29;1234;-71
2023/04/26 02:27:04;;;;;;;7.28;3.75;;;;;;;;;;464537;29;1157;-71
2023/04/26 02:27:20;;;;;;;7.70;3.75;;;;;;;;;;462082;29;1468;-71
2023/04/26 02:27:58;;;;;;;8.15;3.72;;;;;;;;;;462028;29;1162;-72
2023/04/26 02:28:27;;;;;;;7.68;3.80;;;;;;;;;;462504;29;1924;-72
2023/04/26 02:28:49;;;;;;;7.60;3.67;;;;;;;;;;464685;29;1265;-70
2023/04/26 02:29:53;;;;;;;;;;;;;;;;;;;;;
2023/04/26 02:30:57;;;;;;;7.68;3.80;;;;;;;;;;461926;29;1132;-70
2023/04/26 02:30:58;;;;;;;8.98;3.60;;;;;;;;;;465681;29;1907;-69
2023/04/26 02:31:36;;;;;;;;;;;;;;;;;;;;;
2023/04/26 02:31:55;;;;;;;7.53;3.80;;;;;;;;;;475253;29;1310;-70
2023/04/26 02:32:30;;;;;;;8.07;3.90;;;;;;;;;;468865;29;1098;-71
2023/04/26 02:32:48;;;;;;;8.55;3.90;;;;;;;;;;468175;29;1786;-70
2023/04/26 02:33:08;;;;;;;8.88;3.97;;;;;;;;;;469884;29;1354;-71
2023/04/26 02:33:24;;;;;;;8.55;4.18;;;;;;;;;;465723;29;1257;-71
2023/04/26 02:33:51;;;;;;;7.68;4.13;;;;;;;;;;461694;29;1124;-70
2023/04/26 02:34:42;;;;;;;7.85;3.60;;;;;;;;;;462150;29;1301;-71
2023/04/26 02:35:07;;;;;;;7.72;3.88;;;;;;;;;;468105;29;1202;-70
2023/04/26 02:35:23;;;;;;;8.23;3.85;;;;;;;;;;471141;29;972;-70
2023/04/26 02:35:43;;;;;;;7.53;3.75;;;;;;;;;;465292;29;1362;-71
2023/04/26 02:36:13;;;;;;;;;;;;;;;;;;;;;
2023/04/26 02:36:47;;;;;;;7.55;3.90;;;;;;;;;;466458;29;1074;-71
2023/04/26 02:37:21;;;;;;;6.78;3.65;;;;;;;;;;464191;29;1244;-71
2023/04/26 02:37:39;;;;;;;7.60;3.95;;;;;;;;;;467916;29;1724;-71
2023/04/26 02:37:55;;;;;;;7.55;3.88;;;;;;;;;;468347;29;1417;-70
2023/04/26 02:38:25;;;;;;;6.53;3.63;;;;;;;;;;466437;29;1823;-70
2023/04/26 02:38:55;;;;;;;7.72;3.80;;;;;;;;;;475192;29;949;-71
2023/04/26 02:39:25;;;;;;;6.95;3.53;;;;;;;;;;465567;29;1361;-70
2023/04/26 02:39:41;;;;;;;7.30;3.75;;;;;;;;;;469582;29;1144;-71
2023/04/26 02:40:09;;;;;;;7.13;3.70;;;;;;;;;;468059;29;1366;-70
2023/04/26 02:40:36;;;;;;;;;;;;;;;;;;;;;
2023/04/26 02:41:12;;;;;;;6.93;3.70;;;;;;;;;;463329;29;1062;-72
2023/04/26 02:41:50;;;;;;;6.47;3.60;;;;;;;;;;467093;29;1250;-70
2023/04/26 02:42:38;;;;;;;6.07;3.40;;;;;;;;;;470735;29;1344;-70
2023/04/26 02:43:06;;;;;;;7.82;3.70;;;;;;;;;;463970;29;1788;-72
2023/04/26 02:43:35;;;;;;;;;;;;;;;;;;;;;
2023/04/26 02:44:12;;;;;;;7.25;3.60;;;;;;;;;;460642;29;1602;-71
2023/04/26 02:44:59;;;;;;;8.05;3.72;;;;;;;;;;463805;29;1065;-70
2023/04/26 02:45:42;;;;;;;6.75;3.70;;;;;;;;;;468984;29;1057;-71
2023/04/26 02:46:33;;;;;;;7.35;3.75;;;;;;;;;;474447;29;1282;-71
2023/04/26 02:47:10;;;;;;;6.70;3.80;;;;;;;;;;465503;29;1319;-71
2023/04/26 02:47:38;;;;;;;7.57;3.78;;;;;;;;;;468036;29;1150;-72
2023/04/26 02:48:19;;;;;;;8.02;3.78;;;;;;;;;;466975;29;1207;-71
2023/04/26 02:49:04;;;;;;;8.02;3.90;;;;;;;;;;464195;29;1263;-71
2023/04/26 02:49:28;;;;;;;7.95;4.18;;;;;;;;;;468847;29;1466;-71
2023/04/26 02:49:51;;;;;;;9.27;4.00;;;;;;;;;;472610;29;924;-69
2023/04/26 02:50:33;;;;;;;8.77;3.90;;;;;;;;;;471659;29;1129;-70
2023/04/26 02:50:52;;;;;;;7.40;3.70;;;;;;;;;;474251;29;1197;-70
2023/04/26 02:51:14;;;;;;;7.45;3.75;;;;;;;;;;469802;29;1322;-71
2023/04/26 02:51:33;;;;;;;6.95;3.50;;;;;;;;;;472432;29;1080;-70
2023/04/26 02:51:53;;;;;;;8.43;3.72;;;;;;;;;;471488;29;1083;-70
2023/04/26 02:52:29;;;;;;;6.55;3.63;;;;;;;;;;476100;29;1432;-70
2023/04/26 02:53:17;;;;;;;6.22;3.40;;;;;;;;;;475493;29;1453;-70
2023/04/26 02:53:46;;;;;;;7.35;3.72;;;;;;;;;;468299;29;1539;-70
2023/04/26 02:54:05;;;;;;;7.47;3.70;;;;;;;;;;468748;29;1363;-70
2023/04/26 02:54:41;;;;;;;7.40;3.78;;;;;;;;;;485510;29;1154;-70
2023/04/26 02:54:57;;;;;;;6.35;3.50;;;;;;;;;;473120;29;1500;-70
2023/04/26 02:55:25;;;;;;;7.60;3.65;;;;;;;;;;470176;29;1159;-70
2023/04/26 02:56:00;;;;;;;;;;;;;;;;;;;;;
2023/04/26 02:56:19;;;;;;;7.47;3.65;;;;;;;;;;469622;29;2417;-72
2023/04/26 02:56:58;;;;;;;7.47;3.65;;;;;;;;;;471912;28;1393;-70
2023/04/26 02:57:41;;;;;;;6.72;3.50;;;;;;;;;;476952;28;1217;-70
2023/04/26 02:58:10;;;;;;;8.00;3.50;;;;;;;;;;478860;28;1340;-71
2023/04/26 02:58:29;;;;;;;6.18;3.40;;;;;;;;;;477532;28;1374;-72
2023/04/26 02:58:50;;;;;;;7.07;3.30;;;;;;;;;;475378;28;1256;-70
2023/04/26 02:59:07;;;;;;;6.85;3.58;;;;;;;;;;483097;28;2183;-70
2023/04/26 02:59:29;;;;;;;6.05;3.50;;;;;;;;;;478687;28;1328;-71
2023/04/26 03:00:07;;;;;;;7.50;3.58;;;;;;;;;;479194;28;1253;-72
2023/04/26 03:00:33;;;;;;;;;;;;;;;;;;;;;
2023/04/26 03:00:53;;;;;;;6.90;3.40;;;;;;;;;;477436;28;1376;-71
2023/04/26 03:01:12;;;;;;;6.78;3.42;;;;;;;;;;475777;29;1110;-70
2023/04/26 03:01:31;;;;;;;7.88;3.70;;;;;;;;;;478209;28;1118;-71
2023/04/26 03:02:24;;;;;;;7.22;3.53;;;;;;;;;;488005;28;1608;-70
2023/04/26 03:03:06;;;;;;;7.25;3.70;;;;;;;;;;479455;28;1245;-71
2023/04/26 03:03:33;;;;;;;6.43;3.45;;;;;;;;;;478690;28;1313;-70
2023/04/26 03:04:37;;;;;;;6.75;3.45;;;;;;;;;;473262;28;1359;-70
2023/04/26 03:05:30;;;;;;;7.85;3.80;;;;;;;;;;478631;29;1236;-70
2023/04/26 03:05:51;;;;;;;7.18;3.55;;;;;;;;;;467533;28;1229;-70
2023/04/26 03:06:21;;;;;;;;;;;;;;;;;;;;;
2023/04/26 03:06:41;;;;;;;4.85;3.35;;;;;;;;;;473939;29;1167;-70
2023/04/26 03:07:00;;;;;;;6.10;3.20;;;;;;;;;;472333;28;1156;-70
2023/04/26 03:07:27;;;;;;;5.43;3.50;;;;;;;;;;478618;29;1350;-71
2023/04/26 03:08:24;;;;;;;7.65;3.50;;;;;;;;;;472501;29;1431;-70
2023/04/26 03:08:43;;;;;;;6.68;3.58;;;;;;;;;;477598;29;1113;-70
2023/04/26 03:08:59;;;;;;;6.20;3.72;;;;;;;;;;472742;29;1151;-70
2023/04/26 03:09:33;;;;;;;6.55;3.70;;;;;;;;;;471802;29;1266;-70
2023/04/26 03:09:49;;;;;;;6.95;3.70;;;;;;;;;;473427;29;1300;-70
2023/04/26 03:10:13;;;;;;;7.78;3.60;;;;;;;;;;472660;29;1276;-70
2023/04/26 03:10:34;;;;;;;6.88;3.83;;;;;;;;;;478356;28;1265;-70
2023/04/26 03:11:15;;;;;;;6.10;3.55;;;;;;;;;;475617;28;1294;-70
2023/04/26 03:11:44;;;;;;;7.40;3.42;;;;;;;;;;470496;29;1361;-70
2023/04/26 03:12:16;;;;;;;7.63;3.47;;;;;;;;;;475385;29;1241;-71
2023/04/26 03:12:32;;;;;;;8.80;4.07;;;;;;;;;;471151;29;1518;-71
2023/04/26 03:12:48;;;;;;;8.50;3.90;;;;;;;;;;473533;28;1280;-70
2023/04/26 03:13:08;;;;;;;6.82;3.60;;;;;;;;;;471859;29;1256;-70
2023/04/26 03:13:24;;;;;;;6.65;3.50;;;;;;;;;;474432;29;1073;-70
2023/04/26 03:13:41;;;;;;;6.15;3.33;;;;;;;;;;474596;29;1249;-70
2023/04/26 03:13:57;;;;;;;6.70;3.40;;;;;;;;;;478907;29;1328;-71
2023/04/26 03:14:28;;;;;;;;;;;;;;;;;;;;;
2023/04/26 03:14:54;;;;;;;6.63;3.50;;;;;;;;;;471646;29;1198;-70
2023/04/26 03:15:11;;;;;;;7.18;3.50;;;;;;;;;;472864;28;1234;-70
2023/04/26 03:15:51;;;;;;;6.25;3.60;;;;;;;;;;472488;29;1490;-70
2023/04/26 03:16:13;;;;;;;7.07;3.40;;;;;;;;;;479525;29;1151;-71
2023/04/26 03:16:30;;;;;;;6.03;3.42;;;;;;;;;;477538;28;1955;-71
2023/04/26 03:16:58;;;;;;;6.57;3.50;;;;;;;;;;475976;29;1059;-71
2023/04/26 03:17:29;;;;;;;6.28;3.45;;;;;;;;;;475287;28;1512;-71
2023/04/26 03:17:45;;;;;;;6.53;3.45;;;;;;;;;;474277;28;1250;-70
2023/04/26 03:18:20;;;;;;;7.80;3.90;;;;;;;;;;473290;28;1507;-70
2023/04/26 03:19:08;;;;;;;7.45;3.70;;;;;;;;;;474414;28;1197;-70
2023/04/26 03:19:38;;;;;;;;;;;;;;;;;;;;;
2023/04/26 03:19:57;;;;;;;5.88;3.60;;;;;;;;;;483837;28;1031;-70
2023/04/26 03:20:14;;;;;;;6.07;3.60;;;;;;;;;;487710;28;1217;-71
2023/04/26 03:20:30;;;;;;;6.45;3.47;;;;;;;;;;486442;28;1377;-70
2023/04/26 03:20:46;;;;;;;6.43;3.45;;;;;;;;;;478070;28;1384;-72
2023/04/26 03:21:11;;;;;;;7.15;3.63;;;;;;;;;;485775;28;1263;-71
2023/04/26 03:21:29;;;;;;;7.07;3.55;;;;;;;;;;479622;28;1279;-70
2023/04/26 03:21:45;;;;;;;6.35;3.40;;;;;;;;;;483770;28;1264;-71
2023/04/26 03:22:24;;;;;;;6.15;3.40;;;;;;;;;;474325;28;1319;-70
2023/04/26 03:22:48;;;;;;;6.75;3.40;;;;;;;;;;481214;28;1285;-71
2023/04/26 03:23:16;;;;;;;7.72;3.83;;;;;;;;;;477303;28;1150;-72
2023/04/26 03:23:35;;;;;;;6.45;3.70;;;;;;;;;;475703;29;1106;-70
2023/04/26 03:23:51;;;;;;;7.35;3.72;;;;;;;;;;476385;28;1226;-72
2023/04/26 03:24:16;;;;;;;7.22;3.70;;;;;;;;;;483769;28;1161;-70
2023/04/26 03:24:55;;;;;;;7.22;3.72;;;;;;;;;;474428;28;1132;-71
2023/04/26 03:25:12;;;;;;;5.95;3.50;;;;;;;;;;477686;28;1674;-70
2023/04/26 03:25:48;;;;;;;7.03;3.60;;;;;;;;;;477602;28;1561;-70
2023/04/26 03:26:07;;;;;;;7.60;4.00;;;;;;;;;;486663;28;1135;-70
2023/04/26 03:26:34;;;;;;;8.02;4.00;;;;;;;;;;479774;28;1992;-70
2023/04/26 03:26:50;;;;;;;8.10;3.75;;;;;;;;;;487427;28;1156;-71
2023/04/26 03:27:09;;;;;;;7.30;3.60;;;;;;;;;;487846;28;1134;-70
2023/04/26 03:27:48;;;;;;;7.85;4.00;;;;;;;;;;484933;28;1186;-70
2023/04/26 03:28:19;;;;;;;7.50;3.72;;;;;;;;;;480977;28;1281;-72
2023/04/26 03:28:40;;;;;;;5.53;3.70;;;;;;;;;;486624;28;1113;-70
2023/04/26 03:29:20;;;;;;;6.65;3.65;;;;;;;;;;486759;28;1341;-71
2023/04/26 03:29:38;;;;;;;7.45;3.92;;;;;;;;;;498109;28;1314;-71
2023/04/26 03:30:18;;;;;;;6.82;3.85;;;;;;;;;;483760;28;1258;-70
2023/04/26 03:30:36;;;;;;;7.57;3.85;;;;;;;;;;479574;28;1464;-72
2023/04/26 03:31:01;;;;;;;8.05;3.67;;;;;;;;;;487320;28;1903;-71
2023/04/26 03:31:25;;;;;;;6.97;3.80;;;;;;;;;;482134;28;1156;-71
2023/04/26 03:31:47;;;;;;;7.43;3.58;;;;;;;;;;481163;28;1290;-71
2023/04/26 03:32:06;;;;;;;7.40;3.80;;;;;;;;;;484119;28;1156;-70
2023/04/26 03:32:25;;;;;;;6.85;3.60;;;;;;;;;;482471;28;1077;-70
2023/04/26 03:32:53;;;;;;;;;;;;;;;;;;;;;
2023/04/26 03:33:32;;;;;;;6.10;3.40;;;;;;;;;;484365;28;1083;-70
2023/04/26 03:34:02;;;;;;;;;;;;;;;;;;;;;
2023/04/26 03:34:18;;;;;;;6.30;3.75;;;;;;;;;;485373;28;1105;-70
2023/04/26 03:34:50;;;;;;;5.97;3.60;;;;;;;;;;483284;28;1085;-70
2023/04/26 03:35:09;;;;;;;7.45;4.00;;;;;;;;;;483934;28;1301;-71
2023/04/26 03:35:28;;;;;;;7.30;3.85;;;;;;;;;;481073;28;1146;-71
2023/04/26 03:35:50;;;;;;;7.85;4.00;;;;;;;;;;485378;28;1082;-70
2023/04/26 03:36:29;;;;;;;7.55;4.00;;;;;;;;;;482952;28;1266;-70
2023/04/26 03:37:30;;;;;;;9.32;4.22;;;;;;;;;;480211;28;1324;-70
2023/04/26 03:37:45;;;;;;;6.32;3.63;;;;;;;;;;482397;28;1366;-70
2023/04/26 03:38:16;;;;;;;7.20;3.97;;;;;;;;;;487569;28;1211;-73
2023/04/26 03:38:44;;;;;;;;;;;;;;;;;;;;;
2023/04/26 03:39:01;;;;;;;7.55;3.80;;;;;;;;;;504706;28;1051;-71
2023/04/26 03:39:22;;;;;;;8.13;4.10;;;;;;;;;;493226;28;1418;-72
2023/04/26 03:39:41;;;;;;;8.43;4.15;;;;;;;;;;484686;28;1165;-72
2023/04/26 03:40:06;;;;;;;7.75;4.10;;;;;;;;;;482272;28;1262;-70
2023/04/26 03:40:24;;;;;;;7.13;4.00;;;;;;;;;;482034;28;1218;-70
2023/04/26 03:41:04;;;;;;;7.95;4.30;;;;;;;;;;479970;28;1228;-70
2023/04/26 03:41:20;;;;;;;5.60;3.60;;;;;;;;;;486030;28;1216;-72
2023/04/26 03:42:31;;;;;;;6.65;3.83;;;;;;;;;;481371;28;1519;-71
2023/04/26 03:43:07;;;;;;;7.00;3.65;;;;;;;;;;478405;28;1428;-70
2023/04/26 03:43:31;;;;;;;7.15;4.05;;;;;;;;;;479203;28;1869;-70
2023/04/26 03:43:59;;;;;;;7.65;4.00;;;;;;;;;;485811;28;1247;-70
2023/04/26 03:44:17;;;;;;;5.97;3.70;;;;;;;;;;483200;28;1204;-70
2023/04/26 03:44:42;;;;;;;6.38;3.47;;;;;;;;;;491421;28;1209;-70
2023/04/26 03:45:21;;;;;;;6.22;3.50;;;;;;;;;;483802;28;1366;-71
2023/04/26 03:45:39;;;;;;;5.20;3.65;;;;;;;;;;488633;28;1064;-71
2023/04/26 03:45:56;;;;;;;5.07;3.40;;;;;;;;;;483529;28;1496;-71
2023/04/26 03:46:24;;;;;;;5.88;3.50;;;;;;;;;;480358;28;1328;-70
2023/04/26 03:49:15;;;;;;;6.47;3.72;;;;;;;;;;490023;28;1067;-70
2023/04/26 03:49:34;;;;;;;7.78;4.05;;;;;;;;;;479924;28;1634;-70
2023/04/26 03:49:59;;;;;;;7.43;3.80;;;;;;;;;;477617;28;1184;-70
2023/04/26 03:50:21;;;;;;;7.25;3.97;;;;;;;;;;480601;28;2031;-71
2023/04/26 03:50:48;;;;;;;7.28;3.72;;;;;;;;;;486238;28;1232;-71
2023/04/26 03:51:03;;;;;;;5.45;3.50;;;;;;;;;;482730;28;1127;-70
2023/04/26 03:51:20;;;;;;;7.07;3.80;;;;;;;;;;478326;28;1375;-70
2023/04/26 03:51:38;;;;;;;8.07;3.90;;;;;;;;;;476938;28;1292;-71
2023/04/26 03:52:00;;;;;;;7.75;3.83;;;;;;;;;;478438;28;1747;-70
2023/04/26 03:52:24;;;;;;;8.57;4.25;;;;;;;;;;476600;28;1361;-70
2023/04/26 03:53:01;;;;;;;6.70;4.10;;;;;;;;;;477026;28;1118;-69
2023/04/26 03:53:35;;;;;;;7.70;4.20;;;;;;;;;;480338;28;1239;-72
2023/04/26 03:54:30;;;;;;;5.90;3.58;;;;;;;;;;487270;28;1183;-71
2023/04/26 03:55:19;;;;;;;7.10;3.85;;;;;;;;;;478881;28;1268;-71
2023/04/26 03:55:59;;;;;;;6.45;3.97;;;;;;;;;;486734;28;1194;-71
2023/04/26 03:56:20;;;;;;;7.15;3.90;;;;;;;;;;484163;28;1348;-71
2023/04/26 03:56:41;;;;;;;7.57;4.00;;;;;;;;;;480655;28;2024;-70
2023/04/26 03:57:10;;;;;;;;;;;;;;;;;;;;;
2023/04/26 03:57:29;;;;;;;7.70;4.10;;;;;;;;;;483818;28;988;-71
2023/04/26 03:57:52;;;;;;;6.68;4.05;;;;;;;;;;490475;28;1355;-70